Time;durP1;ratioP1;P1;durP2;ratioP2;P2;SDS_P1;SDS_P2;PMS_P1;PMS_P2;Temp;Humidity;BMP_temperature;BMP_pressure;BME280_temperature;BME280_humidity;BME280_pressure;Samples;Min_cycle;Max_cycle;Signal;HPM_P1;HPM_P2
2022/04/23 00:00:14;;;;;;;15.60;13.10;;;15.70;82.80;;;;;;5013014;28;20208;-91
2022/04/23 00:02:42;;;;;;;15.10;12.27;;;15.70;82.80;;;;;;5013245;28;20168;-90
2022/04/23 00:05:08;;;;;;;16.60;12.67;;;15.80;82.90;;;;;;5008226;28;20267;-91
2022/04/23 00:07:34;;;;;;;18.63;13.20;;;15.90;82.60;;;;;;5013283;28;20256;-92
2022/04/23 00:09:59;;;;;;;14.03;11.83;;;15.90;83.00;;;;;;5007914;28;20189;-90
2022/04/23 00:12:25;;;;;;;16.07;12.50;;;15.70;83.40;;;;;;5012773;28;20181;-91
2022/04/23 00:14:51;;;;;;;17.00;12.83;;;15.90;83.30;;;;;;5005899;28;20227;-90
2022/04/23 00:17:18;;;;;;;15.53;11.93;;;15.90;83.40;;;;;;5012899;28;20175;-91
2022/04/23 00:19:46;;;;;;;17.57;12.73;;;16.10;82.40;;;;;;5012827;28;20263;-91
2022/04/23 00:22:12;;;;;;;16.63;13.23;;;16.20;82.20;;;;;;5012908;28;20238;-91
2022/04/23 00:24:38;;;;;;;15.00;12.17;;;16.10;82.60;;;;;;5013496;28;20268;-89
2022/04/23 00:27:04;;;;;;;15.97;12.97;;;16.10;81.90;;;;;;5007947;28;20184;-90
2022/04/23 00:29:30;;;;;;;15.17;12.40;;;16.00;82.40;;;;;;5013334;28;20195;-91
2022/04/23 00:31:56;;;;;;;17.07;13.00;;;16.10;82.50;;;;;;5006799;28;20184;-91
2022/04/23 00:34:22;;;;;;;16.00;12.70;;;15.90;83.40;;;;;;5012624;28;20196;-91
2022/04/23 00:36:48;;;;;;;19.17;12.97;;;16.00;83.00;;;;;;5005541;28;20189;-91
2022/04/23 00:39:14;;;;;;;15.70;12.43;;;16.00;82.70;;;;;;5012525;28;20208;-91
2022/04/23 00:41:45;;;;;;;17.63;13.23;;;15.90;82.90;;;;;;5012846;28;20168;-91
2022/04/23 00:44:11;;;;;;;15.70;12.80;;;15.90;83.50;;;;;;5008367;28;20644;-91
2022/04/23 00:46:37;;;;;;;16.13;12.80;;;15.90;83.30;;;;;;5012849;28;20185;-91
2022/04/23 00:49:08;;;;;;;17.53;12.80;;;15.90;83.40;;;;;;5006844;28;20194;-91
2022/04/23 00:51:35;;;;;;;14.40;12.27;;;15.80;84.20;;;;;;5012478;28;20179;-91
2022/04/23 00:54:07;;;;;;;16.07;12.17;;;15.70;84.50;;;;;;5007031;28;20181;-93
2022/04/23 00:56:36;;;;;;;17.30;12.23;;;15.70;84.40;;;;;;5012266;28;20530;-90
2022/04/23 00:59:09;;;;;;;17.20;12.60;;;15.70;84.20;;;;;;5006992;28;20216;-91
2022/04/23 01:01:34;;;;;;;17.07;12.27;;;15.50;85.40;;;;;;5012777;28;20231;-91
2022/04/23 01:04:06;;;;;;;14.57;12.27;;;15.50;86.20;;;;;;5007153;28;20274;-90
2022/04/23 01:06:34;;;;;;;15.20;12.50;;;15.50;86.10;;;;;;5013645;28;20200;-91
2022/04/23 01:09:03;;;;;;;16.87;12.90;;;15.70;85.90;;;;;;5017576;28;20184;-90
2022/04/23 01:11:28;;;;;;;15.57;12.80;;;15.80;85.00;;;;;;5018267;28;20199;-90
2022/04/23 01:13:55;;;;;;;18.30;12.43;;;15.70;85.70;;;;;;5005852;28;20188;-90
2022/04/23 01:16:20;;;;;;;17.07;13.30;;;15.60;86.10;;;;;;5012309;28;20267;-91
2022/04/23 01:18:46;;;;;;;18.53;12.37;;;15.60;85.90;;;;;;5004512;28;20303;-91
2022/04/23 01:21:13;;;;;;;14.57;11.90;;;15.50;86.60;;;;;;5012255;28;20169;-91
2022/04/23 01:23:43;;;;;;;13.27;11.87;;;15.50;87.20;;;;;;5012284;28;20180;-90
2022/04/23 01:26:10;;;;;;;16.60;11.80;;;15.50;87.10;;;;;;5007628;28;20208;-90
2022/04/23 01:28:37;;;;;;;15.40;12.33;;;15.70;86.50;;;;;;5012038;28;20180;-91
2022/04/23 01:31:04;;;;;;;13.77;12.37;;;15.80;86.10;;;;;;5006761;28;20173;-91
2022/04/23 01:33:32;;;;;;;14.23;11.70;;;15.70;86.50;;;;;;5013354;28;20177;-92
2022/04/23 01:35:58;;;;;;;18.43;12.73;;;15.50;87.10;;;;;;5009901;28;20207;-91
2022/04/23 01:38:23;;;;;;;18.13;12.77;;;15.50;87.30;;;;;;5015796;28;20617;-91
2022/04/23 01:40:49;;;;;;;14.67;11.93;;;15.50;87.70;;;;;;5008503;28;20251;-91
2022/04/23 01:43:15;;;;;;;16.53;12.77;;;15.50;87.90;;;;;;5015484;28;20169;-91
2022/04/23 01:45:41;;;;;;;17.47;12.40;;;15.30;88.40;;;;;;5015589;28;20204;-91
2022/04/23 01:48:07;;;;;;;16.93;12.33;;;15.20;89.10;;;;;;5010840;28;20225;-90
2022/04/23 01:50:34;;;;;;;15.87;12.47;;;15.20;89.80;;;;;;5015602;28;20173;-90
2022/04/23 01:52:59;;;;;;;15.77;12.63;;;15.20;89.80;;;;;;5010109;28;20186;-91
2022/04/23 01:55:25;;;;;;;15.50;12.87;;;15.20;90.00;;;;;;5015543;28;20175;-92
2022/04/23 01:57:51;;;;;;;17.57;12.97;;;15.20;90.00;;;;;;5008370;28;20169;-89
2022/04/23 02:00:16;;;;;;;19.20;13.90;;;15.10;90.20;;;;;;5015538;28;20204;-91
2022/04/23 02:02:43;;;;;;;17.87;13.03;;;15.20;90.30;;;;;;5007066;28;20223;-92
2022/04/23 02:05:10;;;;;;;17.00;13.03;;;15.00;90.80;;;;;;5015631;28;20177;-91
2022/04/23 02:07:39;;;;;;;15.83;12.70;;;15.00;91.00;;;;;;5015844;28;20200;-91
2022/04/23 02:10:10;;;;;;;18.90;12.73;;;15.10;90.80;;;;;;5012559;28;20180;-93
2022/04/23 02:12:38;;;;;;;17.17;13.57;;;15.20;90.70;;;;;;5025222;28;20235;-90
2022/04/23 02:15:08;;;;;;;18.20;13.00;;;15.30;90.50;;;;;;5028454;28;20172;-90
2022/04/23 02:17:39;;;;;;;16.70;13.57;;;15.30;90.50;;;;;;5029540;28;20189;-90
2022/04/23 02:20:07;;;;;;;16.47;13.47;;;15.30;90.70;;;;;;5011154;28;20229;-91
2022/04/23 02:22:33;;;;;;;17.43;13.63;;;15.10;91.20;;;;;;5016661;28;20184;-91
2022/04/23 02:24:58;;;;;;;16.37;12.87;;;15.10;91.40;;;;;;5009447;28;20180;-91
2022/04/23 02:27:24;;;;;;;19.97;13.77;;;15.20;91.40;;;;;;5015082;28;20256;-93
2022/04/23 02:29:54;;;;;;;20.57;13.93;;;15.30;91.10;;;;;;5007903;28;20182;-93
2022/04/23 02:32:20;;;;;;;17.87;13.83;;;15.30;91.10;;;;;;5015129;28;20205;-92
2022/04/23 02:34:46;;;;;;;18.33;14.10;;;15.20;91.40;;;;;;5006983;28;20204;-93
2022/04/23 02:37:11;;;;;;;19.47;13.30;;;15.20;91.60;;;;;;5014463;28;20634;-93
2022/04/23 02:39:41;;;;;;;18.57;14.53;;;15.30;91.40;;;;;;5014778;28;20217;-92
2022/04/23 02:42:09;;;;;;;16.70;13.57;;;15.30;91.50;;;;;;5009442;28;20233;-92
2022/04/23 02:44:35;;;;;;;18.90;14.60;;;15.10;91.90;;;;;;5012866;28;20252;-92
2022/04/23 02:47:01;;;;;;;19.67;14.53;;;15.10;92.00;;;;;;5008683;28;20279;-93
2022/04/23 02:49:27;;;;;;;21.10;15.47;;;15.20;92.00;;;;;;5014324;28;20275;-92
2022/04/23 02:51:53;;;;;;;18.20;14.30;;;15.10;92.20;;;;;;5007461;28;20219;-93
2022/04/23 02:54:18;;;;;;;20.23;14.90;;;15.00;92.50;;;;;;5014414;28;20180;-91
2022/04/23 02:56:46;;;;;;;18.87;14.63;;;15.10;92.50;;;;;;5005998;28;20626;-92
2022/04/23 02:59:12;;;;;;;17.80;14.33;;;15.10;92.70;;;;;;5013894;28;20255;-93
2022/04/23 03:01:39;;;;;;;19.27;15.57;;;15.10;92.60;;;;;;5014038;28;20209;-91
2022/04/23 03:04:05;;;;;;;18.27;15.67;;;15.30;92.30;;;;;;5009146;28;20187;-90
2022/04/23 03:06:30;;;;;;;18.43;15.30;;;15.20;92.40;;;;;;5014109;28;20189;-91
2022/04/23 03:08:56;;;;;;;19.67;16.17;;;15.20;92.70;;;;;;5007687;28;20541;-92
2022/04/23 03:11:23;;;;;;;20.37;15.60;;;15.10;92.90;;;;;;5013754;28;20175;-91
2022/04/23 03:13:48;;;;;;;19.07;16.40;;;15.10;92.80;;;;;;5006429;28;20179;-90
2022/04/23 03:16:14;;;;;;;19.90;15.47;;;15.10;92.90;;;;;;5013812;28;20185;-91
2022/04/23 03:18:40;;;;;;;18.23;15.57;;;15.20;93.00;;;;;;5013730;28;20184;-91
2022/04/23 03:21:05;;;;;;;21.07;15.63;;;15.20;92.90;;;;;;5008755;28;20173;-91
2022/04/23 03:23:31;;;;;;;20.17;15.80;;;15.20;92.70;;;;;;5013862;28;20618;-91
2022/04/23 03:25:57;;;;;;;19.30;15.63;;;15.30;92.60;;;;;;5007490;28;20267;-91
2022/04/23 03:28:23;;;;;;;20.20;16.10;;;15.10;93.10;;;;;;5013477;28;20625;-91
2022/04/23 03:30:49;;;;;;;21.73;16.77;;;15.00;93.90;;;;;;5006202;28;20177;-90
2022/04/23 03:33:16;;;;;;;21.00;15.20;;;15.10;93.30;;;;;;5013466;28;20192;-90
2022/04/23 03:35:41;;;;;;;20.67;15.93;;;15.10;93.30;;;;;;5013648;28;20247;-90
2022/04/23 03:38:08;;;;;;;21.80;16.07;;;15.10;93.30;;;;;;5008696;28;20189;-90
2022/04/23 03:40:33;;;;;;;21.93;16.93;;;15.00;93.30;;;;;;5013559;28;20225;-89
2022/04/23 03:42:59;;;;;;;21.53;17.23;;;15.00;93.30;;;;;;5007668;28;20239;-90
2022/04/23 03:45:25;;;;;;;24.07;16.50;;;15.00;93.50;;;;;;5013689;28;20537;-90
2022/04/23 03:47:51;;;;;;;20.87;16.97;;;15.00;93.50;;;;;;5006219;28;20262;-90
2022/04/23 03:50:17;;;;;;;20.37;17.00;;;14.90;93.80;;;;;;5013185;28;20320;-90
2022/04/23 03:52:44;;;;;;;20.73;17.00;;;14.80;94.00;;;;;;5013007;28;20181;-90
2022/04/23 03:55:11;;;;;;;22.27;17.63;;;14.70;94.30;;;;;;5012715;28;20660;-90
2022/04/23 03:57:48;;;;;;;20.93;17.80;;;14.60;94.40;;;;;;5012670;28;20181;-90
2022/04/23 04:00:15;;;;;;;22.50;17.80;;;14.60;94.60;;;;;;5009347;28;20295;-90
2022/04/23 04:02:44;;;;;;;23.43;16.53;;;14.50;95.10;;;;;;5012819;28;20180;-90
2022/04/23 04:05:10;;;;;;;22.43;16.90;;;14.50;95.20;;;;;;5008369;28;20763;-90
2022/04/23 04:07:42;;;;;;;23.23;18.03;;;14.60;94.80;;;;;;5012755;28;20248;-88
2022/04/23 04:10:09;;;;;;;20.80;17.03;;;14.60;94.80;;;;;;5008646;28;20183;-89
2022/04/23 04:12:35;;;;;;;22.33;17.07;;;14.50;94.90;;;;;;5012640;28;20571;-90
2022/04/23 04:15:01;;;;;;;22.37;17.37;;;14.50;95.00;;;;;;5009289;28;20541;-88
2022/04/23 04:17:27;;;;;;;21.50;17.47;;;14.70;94.60;;;;;;5015169;28;20260;-88
2022/04/23 04:19:53;;;;;;;19.97;16.53;;;14.60;94.60;;;;;;5008913;28;20241;-90
2022/04/23 04:22:21;;;;;;;25.47;17.10;;;14.60;95.00;;;;;;5014104;28;20181;-90
2022/04/23 04:24:48;;;;;;;21.30;17.50;;;14.50;94.70;;;;;;5005359;28;20177;-90
2022/04/23 04:27:14;;;;;;;20.40;15.97;;;14.50;94.90;;;;;;5012266;28;20227;-88
2022/04/23 04:29:39;;;;;;;20.17;16.73;;;14.60;94.50;;;;;;5012585;28;20177;-90
2022/04/23 04:32:07;;;;;;;23.70;17.30;;;14.70;94.30;;;;;;5007852;28;20181;-90
2022/04/23 04:34:33;;;;;;;22.33;17.10;;;14.70;94.20;;;;;;5012420;28;20176;-90
2022/04/23 04:37:09;;;;;;;24.07;17.20;;;14.60;94.20;;;;;;5007019;28;20192;-90
2022/04/23 04:39:42;;;;;;;25.40;17.37;;;14.50;94.30;;;;;;5012454;28;20340;-90
2022/04/23 04:42:10;;;;;;;19.70;16.20;;;14.40;94.40;;;;;;5007779;28;20174;-88
2022/04/23 04:44:36;;;;;;;22.83;17.97;;;14.30;94.70;;;;;;5012545;28;20184;-89
2022/04/23 04:47:04;;;;;;;23.03;17.87;;;14.40;94.70;;;;;;5007166;28;20665;-90
2022/04/23 04:49:30;;;;;;;22.73;16.77;;;14.20;95.10;;;;;;5012550;28;20239;-87
2022/04/23 04:51:56;;;;;;;19.63;16.67;;;14.20;95.20;;;;;;5006336;28;20234;-88
2022/04/23 04:54:22;;;;;;;20.67;17.07;;;14.30;95.10;;;;;;5012672;28;20182;-88
2022/04/23 04:56:49;;;;;;;22.23;17.27;;;14.30;95.10;;;;;;5004954;28;20169;-87
2022/04/23 04:59:16;;;;;;;27.20;18.43;;;14.30;95.40;;;;;;5012266;28;20211;-90
2022/04/23 05:01:41;;;;;;;24.20;18.07;;;14.30;95.10;;;;;;5012657;28;20214;-90
2022/04/23 05:04:07;;;;;;;20.73;16.87;;;14.40;95.00;;;;;;5007329;28;20212;-87
2022/04/23 05:06:33;;;;;;;22.30;18.23;;;14.40;94.90;;;;;;5012174;28;20268;-87
2022/04/23 05:08:59;;;;;;;22.53;17.50;;;14.50;94.70;;;;;;5009026;28;20209;-90
2022/04/23 05:11:24;;;;;;;22.87;18.23;;;14.50;94.60;;;;;;5015761;28;20188;-89
2022/04/23 05:13:50;;;;;;;23.00;18.33;;;14.40;95.00;;;;;;5008828;28;20185;-87
2022/04/23 05:16:17;;;;;;;20.57;16.90;;;14.40;94.70;;;;;;5016379;28;20198;-90
2022/04/23 05:18:42;;;;;;;21.13;17.23;;;14.40;94.70;;;;;;5007466;28;20181;-92
2022/04/23 05:21:08;;;;;;;25.47;18.37;;;14.40;94.70;;;;;;5016192;28;20188;-92
2022/04/23 05:23:34;;;;;;;25.23;18.00;;;14.40;94.70;;;;;;5015787;28;20691;-92
2022/04/23 05:26:01;;;;;;;23.50;17.23;;;14.40;94.80;;;;;;5010379;28;20184;-92
2022/04/23 05:28:27;;;;;;;22.63;18.17;;;14.30;95.00;;;;;;5015683;28;20183;-91
2022/04/23 05:30:53;;;;;;;25.07;18.50;;;14.30;95.10;;;;;;5009072;28;20180;-91
2022/04/23 05:33:19;;;;;;;22.60;17.53;;;14.30;95.10;;;;;;5015977;28;20283;-91
2022/04/23 05:35:44;;;;;;;25.40;18.93;;;14.30;95.30;;;;;;5007659;28;20629;-91
2022/04/23 05:38:10;;;;;;;23.20;17.97;;;14.40;95.00;;;;;;5015612;28;20180;-91
2022/04/23 05:40:36;;;;;;;24.37;18.40;;;14.30;95.10;;;;;;5015244;28;20219;-91
2022/04/23 05:43:01;;;;;;;24.00;18.37;;;14.30;95.00;;;;;;5010014;28;20190;-91
2022/04/23 05:45:30;;;;;;;23.97;18.43;;;14.30;95.00;;;;;;5015340;28;20185;-89
2022/04/23 05:47:57;;;;;;;23.60;18.57;;;14.30;95.10;;;;;;5009365;28;20198;-91
2022/04/23 05:50:23;;;;;;;26.20;18.97;;;14.40;95.30;;;;;;5015336;28;20644;-91
2022/04/23 05:52:49;;;;;;;26.03;18.40;;;14.30;95.20;;;;;;5008240;28;20179;-91
2022/04/23 05:55:16;;;;;;;24.53;19.10;;;14.30;95.50;;;;;;5015197;28;20189;-89
2022/04/23 05:57:42;;;;;;;24.93;19.37;;;14.30;95.40;;;;;;5015237;28;20652;-88
2022/04/23 06:00:10;;;;;;;25.03;19.33;;;14.30;95.70;;;;;;5010318;28;20203;-88
2022/04/23 06:02:36;;;;;;;24.60;19.10;;;14.30;95.60;;;;;;5015366;28;20176;-91
2022/04/23 06:05:02;;;;;;;22.93;18.93;;;14.30;95.40;;;;;;5009558;28;20174;-91
2022/04/23 06:07:28;;;;;;;26.63;18.97;;;14.30;95.60;;;;;;5014260;28;20205;-91
2022/04/23 06:09:54;;;;;;;24.33;18.93;;;14.30;95.50;;;;;;5007509;28;20244;-91
2022/04/23 06:12:20;;;;;;;24.30;18.53;;;14.30;95.90;;;;;;5014250;28;20662;-87
2022/04/23 06:14:45;;;;;;;23.63;18.17;;;14.30;95.70;;;;;;5006144;28;20257;-89
2022/04/23 06:17:12;;;;;;;24.47;19.00;;;14.30;95.80;;;;;;5014078;28;20169;-90
2022/04/23 06:19:45;;;;;;;23.80;18.83;;;14.30;95.80;;;;;;5013478;28;20236;-92
2022/04/23 06:22:10;;;;;;;23.40;17.87;;;14.20;96.00;;;;;;5009563;28;20175;-91
2022/04/23 06:24:36;;;;;;;23.43;18.63;;;14.30;96.00;;;;;;5013845;28;20187;-89
2022/04/23 06:27:02;;;;;;;27.10;19.47;;;14.50;95.60;;;;;;5008047;28;20184;-88
2022/04/23 06:29:28;;;;;;;24.20;18.67;;;14.40;95.60;;;;;;5013735;28;20254;-88
2022/04/23 06:31:53;;;;;;;27.00;18.57;;;14.30;96.20;;;;;;5007162;28;20277;-91
2022/04/23 06:34:20;;;;;;;25.10;17.80;;;14.30;96.10;;;;;;5013878;28;20186;-88
2022/04/23 06:36:45;;;;;;;25.43;19.60;;;14.50;95.60;;;;;;5006893;28;20214;-90
2022/04/23 06:39:11;;;;;;;23.37;17.57;;;14.60;95.40;;;;;;5016420;28;20243;-90
2022/04/23 06:41:37;;;;;;;23.40;18.83;;;14.60;95.40;;;;;;5019830;28;20249;-91
2022/04/23 06:44:03;;;;;;;25.03;19.13;;;14.50;95.40;;;;;;5016326;28;20242;-92
2022/04/23 06:46:28;;;;;;;24.70;17.63;;;14.40;95.70;;;;;;5025358;28;20200;-91
2022/04/23 06:48:54;;;;;;;21.90;17.70;;;14.50;95.60;;;;;;5008913;28;20172;-91
2022/04/23 06:51:20;;;;;;;23.57;18.27;;;14.60;95.50;;;;;;4996976;28;20544;-92
2022/04/23 06:53:46;;;;;;;24.47;18.10;;;14.70;95.60;;;;;;5005561;28;20681;-89
2022/04/23 06:56:11;;;;;;;23.87;18.47;;;14.80;95.10;;;;;;5013148;28;20237;-90
2022/04/23 06:58:37;;;;;;;23.77;18.07;;;14.80;94.70;;;;;;5012960;28;20179;-93
2022/04/23 07:01:09;;;;;;;23.73;18.23;;;14.80;95.00;;;;;;5007556;28;20323;-93
2022/04/23 07:03:35;;;;;;;20.70;17.10;;;14.90;95.00;;;;;;5012754;28;20177;-90
2022/04/23 07:06:00;;;;;;;24.57;18.17;;;14.90;94.60;;;;;;4997504;28;283336;-90
2022/04/23 07:08:26;;;;;;;21.87;16.70;;;14.90;94.40;;;;;;5001597;28;20188;-90
2022/04/23 07:10:52;;;;;;;23.47;17.70;;;15.10;94.70;;;;;;5008370;28;20207;-90
2022/04/23 07:13:17;;;;;;;24.33;17.60;;;15.20;94.30;;;;;;5016063;28;20192;-91
2022/04/23 07:15:44;;;;;;;22.93;17.93;;;15.10;94.30;;;;;;5009913;28;20193;-93
2022/04/23 07:18:10;;;;;;;20.40;17.00;;;15.30;93.90;;;;;;5016305;28;20212;-93
2022/04/23 07:20:39;;;;;;;22.90;17.47;;;15.40;93.20;;;;;;5013262;28;20674;-92
2022/04/23 07:25:49;;;;;;;21.00;17.27;;;15.50;93.20;;;;;;5015171;28;20184;-92
2022/04/23 07:28:14;;;;;;;20.37;16.33;;;15.60;92.90;;;;;;5010095;28;20170;-94
2022/04/23 07:30:40;;;;;;;20.40;16.07;;;15.60;92.90;;;;;;5012995;28;20178;-93
2022/04/23 07:33:05;;;;;;;21.43;16.57;;;15.70;92.50;;;;;;5008844;28;20272;-93
2022/04/23 07:38:17;;;;;;;23.17;17.63;;;15.90;92.20;;;;;;5016305;28;20654;-92
2022/04/23 07:40:44;;;;;;;22.10;16.43;;;15.90;92.20;;;;;;5005488;28;20215;-93
2022/04/23 07:43:12;;;;;;;23.70;16.90;;;15.90;92.00;;;;;;5013410;28;20216;-93
2022/04/23 07:45:38;;;;;;;22.93;17.10;;;15.80;92.10;;;;;;5013453;28;20607;-95
2022/04/23 07:48:06;;;;;;;21.53;16.67;;;15.90;92.10;;;;;;5008483;28;20705;-91
2022/04/23 07:50:32;;;;;;;19.77;15.83;;;16.00;91.90;;;;;;5013287;28;20194;-93
2022/04/23 07:52:58;;;;;;;21.17;16.50;;;16.20;91.40;;;;;;5007650;28;20177;-93
2022/04/23 07:55:25;;;;;;;20.47;17.20;;;16.20;91.40;;;;;;5013498;28;20178;-93
2022/04/23 07:57:50;;;;;;;18.53;15.10;;;16.20;91.50;;;;;;5006665;28;20190;-91
2022/04/23 08:00:17;;;;;;;22.70;16.13;;;16.30;91.20;;;;;;5014277;28;20212;-93
2022/04/23 08:02:42;;;;;;;19.87;15.97;;;16.30;91.20;;;;;;5014113;28;20181;-93
2022/04/23 08:05:12;;;;;;;20.77;15.97;;;16.40;91.10;;;;;;5013396;28;20271;-92
2022/04/23 08:07:39;;;;;;;19.77;16.73;;;16.40;90.80;;;;;;5013688;28;20201;-93
2022/04/23 08:10:06;;;;;;;20.00;15.77;;;16.50;90.60;;;;;;5008562;28;20188;-94
2022/04/23 08:12:35;;;;;;;20.53;15.57;;;16.60;90.80;;;;;;5013362;28;20269;-90
2022/04/23 08:15:01;;;;;;;21.93;15.70;;;16.60;90.70;;;;;;5008093;28;20208;-91
2022/04/23 08:17:26;;;;;;;20.27;16.23;;;16.70;90.20;;;;;;5013836;28;20645;-92
2022/04/23 08:19:52;;;;;;;19.40;15.73;;;16.60;90.00;;;;;;5007258;28;20213;-92
2022/04/23 08:22:18;;;;;;;18.90;15.17;;;16.60;90.20;;;;;;5013996;28;20184;-91
2022/04/23 08:24:43;;;;;;;19.33;15.50;;;16.60;90.20;;;;;;5006428;28;20191;-93
2022/04/23 08:27:09;;;;;;;23.17;16.10;;;16.70;90.00;;;;;;5013183;28;20187;-92
2022/04/23 08:32:19;;;;;;;20.93;15.57;;;16.80;90.20;;;;;;5013769;28;20192;-92
2022/04/23 08:34:45;;;;;;;20.50;16.30;;;16.90;89.40;;;;;;5005162;28;20177;-92
2022/04/23 08:37:12;;;;;;;22.40;15.80;;;16.90;89.40;;;;;;5012666;28;20634;-92
2022/04/23 08:39:39;;;;;;;19.83;15.50;;;17.00;88.80;;;;;;5012538;28;20675;-90
2022/04/23 08:42:06;;;;;;;22.10;16.33;;;17.00;89.40;;;;;;5009219;28;20188;-93
2022/04/23 08:44:32;;;;;;;18.77;15.27;;;17.10;89.20;;;;;;5016766;28;20187;-90
2022/04/23 08:46:58;;;;;;;20.13;15.40;;;17.10;89.00;;;;;;5014879;28;20555;-95
2022/04/23 08:49:29;;;;;;;19.50;16.27;;;17.10;88.00;;;;;;5023804;28;20208;-96
2022/04/23 08:52:13;;;;;;;19.37;15.57;;;17.20;88.30;;;;;;5016951;28;20204;-96
2022/04/23 08:54:42;;;;;;;20.37;15.80;;;17.30;87.70;;;;;;5023249;28;20180;-92
2022/04/23 08:57:09;;;;;;;21.07;15.67;;;17.30;88.60;;;;;;5020316;28;20188;-94
2022/04/23 08:59:36;;;;;;;18.67;15.47;;;17.30;87.90;;;;;;5022898;28;20266;-94
2022/04/23 09:02:01;;;;;;;17.30;15.17;;;17.40;87.70;;;;;;5012600;28;20272;-94
2022/04/23 09:04:28;;;;;;;20.43;15.00;;;17.50;87.60;;;;;;5019162;28;20648;-91
2022/04/23 09:06:54;;;;;;;18.83;15.70;;;17.60;86.90;;;;;;5011301;28;20201;-96
2022/04/23 09:09:24;;;;;;;17.87;14.93;;;17.70;86.70;;;;;;5018601;28;20646;-95
2022/04/23 09:11:51;;;;;;;20.53;15.57;;;17.80;86.20;;;;;;5011770;28;20173;-96
2022/04/23 09:14:28;;;;;;;19.43;15.03;;;17.80;87.00;;;;;;5019170;28;20181;-96
2022/04/23 09:25:35;;;;;;;19.37;15.33;;;17.90;85.30;;;;;;5030151;28;20258;-92
2022/04/23 09:28:19;;;;;;;20.37;16.23;;;18.20;85.10;;;;;;5022891;28;20177;-96
2022/04/23 09:30:47;;;;;;;19.77;15.77;;;18.30;84.40;;;;;;5021459;28;20177;-96
2022/04/23 09:33:13;;;;;;;17.17;14.33;;;18.30;84.40;;;;;;5021205;28;20197;-96
2022/04/23 09:35:52;;;;;;;19.77;15.23;;;18.30;84.50;;;;;;5019305;28;20268;-94
2022/04/23 09:38:18;;;;;;;22.70;15.67;;;18.50;83.80;;;;;;5014060;28;20181;-93
2022/04/23 09:40:58;;;;;;;20.43;15.80;;;18.50;83.40;;;;;;5007622;28;20720;-92
2022/04/23 09:43:28;;;;;;;18.07;16.10;;;18.60;83.20;;;;;;5015984;28;20180;-92
2022/04/23 09:46:08;;;;;;;19.87;14.80;;;18.60;82.90;;;;;;5008934;28;20173;-92
2022/04/23 09:48:39;;;;;;;20.23;15.47;;;18.70;83.20;;;;;;5015699;28;20239;-93
2022/04/23 09:51:20;;;;;;;19.33;15.03;;;18.70;82.50;;;;;;5011095;28;20230;-93
2022/04/23 09:53:50;;;;;;;19.73;14.87;;;18.80;82.00;;;;;;5015774;28;20181;-91
2022/04/23 09:56:17;;;;;;;18.87;15.57;;;18.80;82.50;;;;;;5016205;28;20209;-93
2022/04/23 09:58:47;;;;;;;20.67;15.93;;;18.90;82.40;;;;;;5017312;28;20527;-92
2022/04/23 10:01:13;;;;;;;19.70;14.33;;;19.00;81.70;;;;;;5016161;28;20274;-93
2022/04/23 10:03:44;;;;;;;20.47;15.40;;;19.10;81.90;;;;;;5015910;28;20182;-93
2022/04/23 10:06:11;;;;;;;17.87;15.00;;;19.10;81.40;;;;;;5010493;28;20190;-93
2022/04/23 10:08:45;;;;;;;18.60;14.47;;;19.10;82.10;;;;;;5015758;28;20183;-89
2022/04/23 10:11:28;;;;;;;18.43;14.37;;;19.30;81.90;;;;;;5010884;28;20172;-93
2022/04/23 10:14:01;;;;;;;22.00;15.43;;;19.50;80.40;;;;;;5014569;28;20215;-92
2022/04/23 10:16:32;;;;;;;22.30;14.93;;;19.70;80.20;;;;;;5015076;28;20227;-94
2022/04/23 10:18:58;;;;;;;19.17;14.53;;;19.70;80.20;;;;;;5009317;28;20191;-94
2022/04/23 10:21:44;;;;;;;21.23;14.53;;;19.80;79.90;;;;;;5015401;28;20232;-95
2022/04/23 10:24:13;;;;;;;17.83;14.00;;;19.90;79.50;;;;;;5010926;28;20182;-94
2022/04/23 10:26:48;;;;;;;18.70;14.23;;;20.00;78.70;;;;;;5015457;28;20193;-95
2022/04/23 10:29:16;;;;;;;17.40;15.00;;;20.10;78.00;;;;;;5011567;28;20230;-94
2022/04/23 10:31:42;;;;;;;18.83;14.10;;;20.30;77.50;;;;;;5016242;28;20184;-94
2022/04/23 10:34:31;;;;;;;15.97;14.10;;;20.40;77.70;;;;;;5010579;28;20177;-94
2022/04/23 10:37:25;;;;;;;17.07;13.73;;;20.50;76.50;;;;;;5014875;28;20630;-91
2022/04/23 10:39:53;;;;;;;16.93;14.00;;;20.60;76.60;;;;;;5011341;28;20252;-94
2022/04/23 10:42:21;;;;;;;17.37;14.13;;;20.90;76.10;;;;;;5014823;28;20263;-94
2022/04/23 10:44:48;;;;;;;15.17;13.57;;;21.10;75.40;;;;;;5007813;28;20181;-91
2022/04/23 10:47:28;;;;;;;16.73;12.83;;;21.40;75.00;;;;;;5017391;28;20633;-93
2022/04/23 10:52:40;;;;;;;15.67;13.60;;;21.60;73.70;;;;;;5006396;28;20180;-94
2022/04/23 10:55:07;;;;;;;15.63;12.87;;;21.60;72.90;;;;;;5013440;28;20169;-94
2022/04/23 10:57:34;;;;;;;15.30;12.23;;;21.70;72.50;;;;;;5032845;28;20170;-93
2022/04/23 11:00:21;;;;;;;19.23;14.13;;;21.80;73.30;;;;;;5029221;28;20268;-93
2022/04/23 11:03:07;;;;;;;17.83;13.13;;;21.90;72.80;;;;;;5025841;28;20177;-92
2022/04/23 11:14:37;;;;;;;15.50;11.67;;;22.60;71.60;;;;;;5015136;28;20270;-91
2022/04/23 11:17:03;;;;;;;14.07;11.33;;;23.40;69.20;;;;;;4997413;28;20185;-94
2022/04/23 11:19:30;;;;;;;13.30;11.80;;;24.10;68.30;;;;;;5014171;28;20220;-93
2022/04/23 11:21:55;;;;;;;13.90;11.30;;;25.00;66.70;;;;;;5007300;28;20201;-93
2022/04/23 11:24:22;;;;;;;14.53;10.53;;;26.00;63.70;;;;;;5013985;28;20640;-93
2022/04/23 11:26:50;;;;;;;11.87;10.63;;;26.80;62.20;;;;;;5006280;28;20173;-94
2022/04/23 11:29:17;;;;;;;13.07;11.73;;;27.60;61.00;;;;;;5013868;28;20528;-95
2022/04/23 11:31:58;;;;;;;14.60;10.20;;;28.30;59.90;;;;;;5005954;28;20181;-95
2022/04/23 11:34:24;;;;;;;15.68;10.85;;;28.80;58.80;;;;;;5013851;28;20601;-94
2022/04/23 11:36:51;;;;;;;13.38;10.52;;;29.30;57.70;;;;;;5006848;28;20213;-91
2022/04/23 11:39:17;;;;;;;12.32;11.02;;;29.70;57.00;;;;;;5014814;28;20216;-94
2022/04/23 11:41:48;;;;;;;11.63;10.52;;;30.10;56.40;;;;;;5013717;28;20181;-94
2022/04/23 11:47:06;;;;;;;11.90;10.45;;;30.90;54.90;;;;;;5015540;28;20235;-96
2022/04/23 11:49:32;;;;;;;13.48;9.88;;;31.10;54.50;;;;;;5012214;28;20185;-95
2022/04/23 11:52:10;;;;;;;13.15;10.90;;;31.40;53.90;;;;;;5007303;28;20209;-96
2022/04/23 11:54:44;;;;;;;11.40;10.07;;;31.70;53.60;;;;;;5013247;28;20177;-96
2022/04/23 11:57:19;;;;;;;10.35;9.27;;;31.70;53.80;;;;;;5008683;28;20181;-96
2022/04/23 11:59:51;;;;;;;12.15;10.23;;;31.60;53.20;;;;;;5013513;28;20275;-95
2022/04/23 12:02:18;;;;;;;14.85;9.82;;;31.40;53.80;;;;;;5013931;28;20174;-96
2022/04/23 12:04:48;;;;;;;11.65;9.50;;;31.60;53.10;;;;;;5013099;28;20692;-96
2022/04/23 12:07:14;;;;;;;9.90;8.95;;;31.70;52.50;;;;;;5012812;28;20197;-96
2022/04/23 12:09:52;;;;;;;14.63;10.68;;;31.70;53.20;;;;;;5014269;28;20177;-96
2022/04/23 12:12:22;;;;;;;15.15;10.13;;;31.90;52.50;;;;;;5009741;28;20207;-96
2022/04/23 12:14:53;;;;;;;12.60;9.50;;;31.60;52.30;;;;;;5013261;28;20173;-95
2022/04/23 12:17:30;;;;;;;10.15;9.10;;;31.50;52.70;;;;;;5012736;28;20208;-96
2022/04/23 12:19:58;;;;;;;11.55;9.52;;;31.40;52.80;;;;;;5006843;28;20220;-96
2022/04/23 12:22:26;;;;;;;10.95;9.55;;;31.10;52.80;;;;;;5013132;28;20263;-95
2022/04/23 12:25:18;;;;;;;10.65;9.55;;;31.10;53.20;;;;;;5006257;28;20275;-96
2022/04/23 12:42:07;;;;;;;8.90;7.78;;;31.90;52.20;;;;;;5014822;28;20220;-94
2022/04/23 12:44:36;;;;;;;9.13;8.15;;;32.30;52.30;;;;;;5014104;28;20539;-94
2022/04/23 12:47:04;;;;;;;9.20;7.68;;;32.70;51.60;;;;;;5007663;28;20173;-96
2022/04/23 12:50:00;;;;;;;8.48;7.30;;;33.10;50.90;;;;;;5013695;28;20177;-96
2022/04/23 12:52:41;;;;;;;8.80;7.57;;;33.00;51.10;;;;;;5011242;28;20276;-95
2022/04/23 12:55:18;;;;;;;11.50;7.90;;;32.70;51.20;;;;;;5008321;28;20177;-96
2022/04/23 12:57:51;;;;;;;15.13;7.85;;;32.40;51.00;;;;;;5013166;28;20548;-96
2022/04/23 13:00:25;;;;;;;8.05;7.20;;;32.40;51.30;;;;;;5012840;28;20219;-96
2022/04/23 13:02:55;;;;;;;8.35;7.10;;;32.70;51.20;;;;;;5013453;28;20177;-96
2022/04/23 13:05:21;;;;;;;7.63;6.90;;;33.00;50.80;;;;;;5014099;28;20611;-96
2022/04/23 13:10:32;;;;;;;11.00;7.00;;;32.50;51.10;;;;;;5015424;28;20552;-96
2022/04/23 13:12:59;;;;;;;10.25;7.28;;;32.50;51.00;;;;;;5006899;28;20166;-96
2022/04/23 13:15:26;;;;;;;8.35;7.25;;;32.30;50.60;;;;;;5012791;28;20289;-96
2022/04/23 13:17:51;;;;;;;8.00;6.95;;;32.30;50.70;;;;;;5005903;28;20276;-94
2022/04/23 13:20:19;;;;;;;8.63;6.75;;;32.20;51.50;;;;;;5012738;28;20324;-95